sensor_id;sensor_type;location;lat;lon;timestamp;P1;durP1;ratioP1;P2;durP2;ratioP2
11342;SDS011;5726;42.160;24.746;2024-01-06T00:02:16;28.03;;;14.57;;
11342;SDS011;5726;42.160;24.746;2024-01-06T00:04:41;30.37;;;15.60;;
11342;SDS011;5726;42.160;24.746;2024-01-06T00:07:07;31.90;;;15.63;;
11342;SDS011;5726;42.160;24.746;2024-01-06T00:09:32;31.93;;;18.63;;
11342;SDS011;5726;42.160;24.746;2024-01-06T00:11:58;44.67;;;25.77;;
11342;SDS011;5726;42.160;24.746;2024-01-06T00:14:23;48.23;;;28.77;;
11342;SDS011;5726;42.160;24.746;2024-01-06T00:16:49;46.73;;;29.27;;
11342;SDS011;5726;42.160;24.746;2024-01-06T00:19:15;60.17;;;34.47;;
11342;SDS011;5726;42.160;24.746;2024-01-06T00:21:42;64.63;;;34.77;;
11342;SDS011;5726;42.160;24.746;2024-01-06T00:24:08;58.97;;;34.50;;
11342;SDS011;5726;42.160;24.746;2024-01-06T00:26:33;66.37;;;38.87;;
11342;SDS011;5726;42.160;24.746;2024-01-06T00:28:59;68.43;;;40.87;;
11342;SDS011;5726;42.160;24.746;2024-01-06T00:31:24;69.10;;;41.37;;
11342;SDS011;5726;42.160;24.746;2024-01-06T00:33:50;65.93;;;39.10;;
11342;SDS011;5726;42.160;24.746;2024-01-06T00:36:15;71.30;;;41.03;;
11342;SDS011;5726;42.160;24.746;2024-01-06T00:38:41;69.47;;;42.10;;
11342;SDS011;5726;42.160;24.746;2024-01-06T00:41:06;68.00;;;41.10;;
11342;SDS011;5726;42.160;24.746;2024-01-06T00:43:32;66.33;;;41.60;;
11342;SDS011;5726;42.160;24.746;2024-01-06T00:45:57;76.43;;;43.50;;
11342;SDS011;5726;42.160;24.746;2024-01-06T00:48:23;72.73;;;43.97;;
11342;SDS011;5726;42.160;24.746;2024-01-06T00:50:48;71.53;;;42.73;;
11342;SDS011;5726;42.160;24.746;2024-01-06T00:53:14;75.30;;;45.63;;
11342;SDS011;5726;42.160;24.746;2024-01-06T00:55:39;70.27;;;44.90;;
11342;SDS011;5726;42.160;24.746;2024-01-06T00:58:04;76.93;;;43.53;;
11342;SDS011;5726;42.160;24.746;2024-01-06T01:00:30;72.33;;;45.33;;
11342;SDS011;5726;42.160;24.746;2024-01-06T01:02:55;73.23;;;42.30;;
11342;SDS011;5726;42.160;24.746;2024-01-06T01:05:22;76.20;;;43.80;;
11342;SDS011;5726;42.160;24.746;2024-01-06T01:07:47;73.07;;;44.43;;
11342;SDS011;5726;42.160;24.746;2024-01-06T01:10:13;77.60;;;44.33;;
11342;SDS011;5726;42.160;24.746;2024-01-06T01:12:38;71.87;;;43.97;;
11342;SDS011;5726;42.160;24.746;2024-01-06T01:15:04;58.37;;;37.43;;
11342;SDS011;5726;42.160;24.746;2024-01-06T01:17:30;52.80;;;28.60;;
11342;SDS011;5726;42.160;24.746;2024-01-06T01:19:55;36.43;;;21.07;;
11342;SDS011;5726;42.160;24.746;2024-01-06T01:22:21;30.00;;;19.23;;
11342;SDS011;5726;42.160;24.746;2024-01-06T01:24:46;29.80;;;17.63;;
11342;SDS011;5726;42.160;24.746;2024-01-06T01:27:12;32.27;;;16.97;;
11342;SDS011;5726;42.160;24.746;2024-01-06T01:29:37;29.13;;;15.27;;
11342;SDS011;5726;42.160;24.746;2024-01-06T01:32:03;26.50;;;15.37;;
11342;SDS011;5726;42.160;24.746;2024-01-06T01:34:29;27.50;;;15.57;;
11342;SDS011;5726;42.160;24.746;2024-01-06T01:36:54;24.57;;;12.43;;
11342;SDS011;5726;42.160;24.746;2024-01-06T01:39:20;23.40;;;13.17;;
11342;SDS011;5726;42.160;24.746;2024-01-06T01:41:46;21.67;;;12.43;;
11342;SDS011;5726;42.160;24.746;2024-01-06T01:44:11;22.57;;;12.60;;
11342;SDS011;5726;42.160;24.746;2024-01-06T01:46:37;23.43;;;12.33;;
11342;SDS011;5726;42.160;24.746;2024-01-06T01:49:03;26.57;;;12.57;;
11342;SDS011;5726;42.160;24.746;2024-01-06T01:51:30;21.50;;;13.47;;
11342;SDS011;5726;42.160;24.746;2024-01-06T01:53:58;31.20;;;14.37;;
11342;SDS011;5726;42.160;24.746;2024-01-06T01:56:26;26.13;;;14.67;;
11342;SDS011;5726;42.160;24.746;2024-01-06T01:58:52;27.30;;;14.77;;
11342;SDS011;5726;42.160;24.746;2024-01-06T02:01:18;26.80;;;14.60;;
11342;SDS011;5726;42.160;24.746;2024-01-06T02:03:44;27.57;;;15.00;;
11342;SDS011;5726;42.160;24.746;2024-01-06T02:06:11;28.33;;;14.97;;
11342;SDS011;5726;42.160;24.746;2024-01-06T02:08:37;34.30;;;18.93;;
11342;SDS011;5726;42.160;24.746;2024-01-06T02:11:03;71.80;;;38.77;;
11342;SDS011;5726;42.160;24.746;2024-01-06T02:13:36;35.83;;;22.40;;
11342;SDS011;5726;42.160;24.746;2024-01-06T02:16:02;27.80;;;15.47;;
11342;SDS011;5726;42.160;24.746;2024-01-06T02:18:30;24.37;;;13.10;;
11342;SDS011;5726;42.160;24.746;2024-01-06T02:20:57;24.77;;;13.77;;
11342;SDS011;5726;42.160;24.746;2024-01-06T02:23:24;22.53;;;13.17;;
11342;SDS011;5726;42.160;24.746;2024-01-06T02:25:49;24.40;;;13.43;;
11342;SDS011;5726;42.160;24.746;2024-01-06T02:28:15;24.70;;;13.53;;
11342;SDS011;5726;42.160;24.746;2024-01-06T02:30:40;40.20;;;22.63;;
11342;SDS011;5726;42.160;24.746;2024-01-06T02:33:06;84.40;;;45.77;;
11342;SDS011;5726;42.160;24.746;2024-01-06T02:35:31;96.37;;;62.53;;
11342;SDS011;5726;42.160;24.746;2024-01-06T02:37:57;30.83;;;19.17;;
11342;SDS011;5726;42.160;24.746;2024-01-06T02:40:22;24.70;;;12.03;;
11342;SDS011;5726;42.160;24.746;2024-01-06T02:42:48;22.40;;;12.77;;
11342;SDS011;5726;42.160;24.746;2024-01-06T02:45:13;23.43;;;13.47;;
11342;SDS011;5726;42.160;24.746;2024-01-06T02:47:39;23.93;;;12.80;;
11342;SDS011;5726;42.160;24.746;2024-01-06T02:50:04;26.93;;;14.17;;
11342;SDS011;5726;42.160;24.746;2024-01-06T02:52:30;28.43;;;13.57;;
11342;SDS011;5726;42.160;24.746;2024-01-06T02:54:56;48.13;;;27.10;;
11342;SDS011;5726;42.160;24.746;2024-01-06T02:57:21;99.30;;;54.80;;
11342;SDS011;5726;42.160;24.746;2024-01-06T02:59:47;42.30;;;23.43;;
11342;SDS011;5726;42.160;24.746;2024-01-06T03:02:13;26.80;;;14.90;;
11342;SDS011;5726;42.160;24.746;2024-01-06T03:04:38;20.13;;;12.33;;
11342;SDS011;5726;42.160;24.746;2024-01-06T03:07:03;20.40;;;11.53;;
11342;SDS011;5726;42.160;24.746;2024-01-06T03:09:29;22.53;;;11.87;;
11342;SDS011;5726;42.160;24.746;2024-01-06T03:11:54;18.77;;;12.23;;
11342;SDS011;5726;42.160;24.746;2024-01-06T03:14:20;27.33;;;13.50;;
11342;SDS011;5726;42.160;24.746;2024-01-06T03:16:45;21.43;;;13.20;;
11342;SDS011;5726;42.160;24.746;2024-01-06T03:19:11;27.10;;;13.17;;
11342;SDS011;5726;42.160;24.746;2024-01-06T03:21:37;21.70;;;12.60;;
11342;SDS011;5726;42.160;24.746;2024-01-06T03:24:03;22.10;;;12.00;;
11342;SDS011;5726;42.160;24.746;2024-01-06T03:26:29;23.57;;;12.93;;
11342;SDS011;5726;42.160;24.746;2024-01-06T03:28:55;54.13;;;33.23;;
11342;SDS011;5726;42.160;24.746;2024-01-06T03:31:21;21.40;;;14.27;;
11342;SDS011;5726;42.160;24.746;2024-01-06T03:33:47;19.20;;;12.27;;
11342;SDS011;5726;42.160;24.746;2024-01-06T03:36:13;17.73;;;10.90;;
11342;SDS011;5726;42.160;24.746;2024-01-06T03:38:41;23.93;;;11.97;;
11342;SDS011;5726;42.160;24.746;2024-01-06T03:41:06;24.13;;;13.07;;
11342;SDS011;5726;42.160;24.746;2024-01-06T03:43:32;21.73;;;12.50;;
11342;SDS011;5726;42.160;24.746;2024-01-06T03:45:58;24.53;;;13.23;;
11342;SDS011;5726;42.160;24.746;2024-01-06T03:48:25;24.97;;;13.27;;
11342;SDS011;5726;42.160;24.746;2024-01-06T03:50:51;23.07;;;14.03;;
11342;SDS011;5726;42.160;24.746;2024-01-06T03:53:16;21.63;;;13.73;;
11342;SDS011;5726;42.160;24.746;2024-01-06T03:55:42;29.03;;;15.30;;
11342;SDS011;5726;42.160;24.746;2024-01-06T03:58:08;27.87;;;14.97;;
11342;SDS011;5726;42.160;24.746;2024-01-06T04:00:33;25.30;;;14.60;;
11342;SDS011;5726;42.160;24.746;2024-01-06T04:02:59;24.87;;;14.40;;
11342;SDS011;5726;42.160;24.746;2024-01-06T04:05:24;23.53;;;13.53;;
11342;SDS011;5726;42.160;24.746;2024-01-06T04:07:50;28.93;;;13.73;;
11342;SDS011;5726;42.160;24.746;2024-01-06T04:10:15;27.00;;;14.73;;
11342;SDS011;5726;42.160;24.746;2024-01-06T04:12:41;27.83;;;15.37;;
11342;SDS011;5726;42.160;24.746;2024-01-06T04:15:07;21.87;;;13.97;;
11342;SDS011;5726;42.160;24.746;2024-01-06T04:17:32;22.57;;;13.70;;
11342;SDS011;5726;42.160;24.746;2024-01-06T04:19:58;20.77;;;14.13;;
11342;SDS011;5726;42.160;24.746;2024-01-06T04:22:23;29.20;;;15.33;;
11342;SDS011;5726;42.160;24.746;2024-01-06T04:24:49;26.70;;;14.30;;
11342;SDS011;5726;42.160;24.746;2024-01-06T04:27:14;39.10;;;23.57;;
11342;SDS011;5726;42.160;24.746;2024-01-06T04:29:40;35.67;;;20.30;;
11342;SDS011;5726;42.160;24.746;2024-01-06T04:32:05;28.53;;;16.27;;
11342;SDS011;5726;42.160;24.746;2024-01-06T04:34:32;25.83;;;14.60;;
11342;SDS011;5726;42.160;24.746;2024-01-06T04:36:58;26.80;;;15.00;;
11342;SDS011;5726;42.160;24.746;2024-01-06T04:39:23;26.77;;;14.67;;
11342;SDS011;5726;42.160;24.746;2024-01-06T04:41:49;25.83;;;13.87;;
11342;SDS011;5726;42.160;24.746;2024-01-06T04:44:14;21.73;;;13.67;;
11342;SDS011;5726;42.160;24.746;2024-01-06T04:46:40;23.43;;;13.50;;
11342;SDS011;5726;42.160;24.746;2024-01-06T04:49:06;20.60;;;12.90;;
11342;SDS011;5726;42.160;24.746;2024-01-06T04:51:31;23.67;;;13.03;;
11342;SDS011;5726;42.160;24.746;2024-01-06T04:53:56;23.27;;;13.70;;
11342;SDS011;5726;42.160;24.746;2024-01-06T04:56:22;24.70;;;12.33;;
11342;SDS011;5726;42.160;24.746;2024-01-06T04:58:47;25.17;;;13.50;;
11342;SDS011;5726;42.160;24.746;2024-01-06T05:01:13;24.83;;;13.77;;
11342;SDS011;5726;42.160;24.746;2024-01-06T05:03:39;21.57;;;12.57;;
11342;SDS011;5726;42.160;24.746;2024-01-06T05:06:04;28.77;;;15.77;;
11342;SDS011;5726;42.160;24.746;2024-01-06T05:08:30;25.07;;;14.70;;
11342;SDS011;5726;42.160;24.746;2024-01-06T05:10:56;20.30;;;13.03;;
11342;SDS011;5726;42.160;24.746;2024-01-06T05:13:21;19.73;;;11.93;;
11342;SDS011;5726;42.160;24.746;2024-01-06T05:15:47;22.17;;;12.23;;
11342;SDS011;5726;42.160;24.746;2024-01-06T05:18:12;17.80;;;10.93;;
11342;SDS011;5726;42.160;24.746;2024-01-06T05:20:38;16.80;;;11.43;;
11342;SDS011;5726;42.160;24.746;2024-01-06T05:23:06;19.93;;;12.67;;
11342;SDS011;5726;42.160;24.746;2024-01-06T05:25:31;22.20;;;11.80;;
11342;SDS011;5726;42.160;24.746;2024-01-06T05:27:57;34.03;;;16.53;;
11342;SDS011;5726;42.160;24.746;2024-01-06T05:30:22;27.13;;;16.33;;
11342;SDS011;5726;42.160;24.746;2024-01-06T05:32:48;26.97;;;14.77;;
11342;SDS011;5726;42.160;24.746;2024-01-06T05:35:15;20.73;;;12.23;;
11342;SDS011;5726;42.160;24.746;2024-01-06T05:37:41;22.67;;;12.60;;
11342;SDS011;5726;42.160;24.746;2024-01-06T05:40:07;27.50;;;13.40;;
11342;SDS011;5726;42.160;24.746;2024-01-06T05:42:33;36.53;;;19.93;;
11342;SDS011;5726;42.160;24.746;2024-01-06T05:44:58;23.23;;;14.37;;
11342;SDS011;5726;42.160;24.746;2024-01-06T05:47:24;21.10;;;12.93;;
11342;SDS011;5726;42.160;24.746;2024-01-06T05:49:49;25.43;;;15.27;;
11342;SDS011;5726;42.160;24.746;2024-01-06T05:52:15;31.43;;;16.23;;
11342;SDS011;5726;42.160;24.746;2024-01-06T05:54:41;24.53;;;15.30;;
11342;SDS011;5726;42.160;24.746;2024-01-06T05:57:09;23.70;;;14.03;;
11342;SDS011;5726;42.160;24.746;2024-01-06T05:59:35;22.07;;;13.63;;
11342;SDS011;5726;42.160;24.746;2024-01-06T06:02:01;25.10;;;13.50;;
11342;SDS011;5726;42.160;24.746;2024-01-06T06:04:27;24.87;;;13.80;;
11342;SDS011;5726;42.160;24.746;2024-01-06T06:06:52;24.17;;;13.73;;
11342;SDS011;5726;42.160;24.746;2024-01-06T06:09:18;18.50;;;11.90;;
11342;SDS011;5726;42.160;24.746;2024-01-06T06:11:45;28.40;;;13.27;;
11342;SDS011;5726;42.160;24.746;2024-01-06T06:14:11;18.37;;;11.23;;
11342;SDS011;5726;42.160;24.746;2024-01-06T06:16:38;22.40;;;12.17;;
11342;SDS011;5726;42.160;24.746;2024-01-06T06:19:03;22.80;;;11.47;;
11342;SDS011;5726;42.160;24.746;2024-01-06T06:21:29;18.07;;;10.60;;
11342;SDS011;5726;42.160;24.746;2024-01-06T06:23:54;20.03;;;11.33;;
11342;SDS011;5726;42.160;24.746;2024-01-06T06:26:20;29.30;;;15.30;;
11342;SDS011;5726;42.160;24.746;2024-01-06T06:28:45;24.17;;;14.00;;
11342;SDS011;5726;42.160;24.746;2024-01-06T06:31:11;21.27;;;12.00;;
11342;SDS011;5726;42.160;24.746;2024-01-06T06:33:36;20.20;;;12.30;;
11342;SDS011;5726;42.160;24.746;2024-01-06T06:36:02;22.70;;;13.10;;
11342;SDS011;5726;42.160;24.746;2024-01-06T06:38:29;25.17;;;13.73;;
11342;SDS011;5726;42.160;24.746;2024-01-06T06:40:55;18.77;;;12.70;;
11342;SDS011;5726;42.160;24.746;2024-01-06T06:43:21;21.93;;;12.40;;
11342;SDS011;5726;42.160;24.746;2024-01-06T06:45:46;19.40;;;12.70;;
11342;SDS011;5726;42.160;24.746;2024-01-06T06:48:12;25.47;;;13.30;;
11342;SDS011;5726;42.160;24.746;2024-01-06T06:50:37;20.00;;;11.87;;
11342;SDS011;5726;42.160;24.746;2024-01-06T06:53:03;21.90;;;13.30;;
11342;SDS011;5726;42.160;24.746;2024-01-06T06:55:29;20.40;;;12.90;;
11342;SDS011;5726;42.160;24.746;2024-01-06T06:57:54;20.10;;;12.13;;
11342;SDS011;5726;42.160;24.746;2024-01-06T07:00:20;21.07;;;12.77;;
11342;SDS011;5726;42.160;24.746;2024-01-06T07:02:45;27.10;;;13.13;;
11342;SDS011;5726;42.160;24.746;2024-01-06T07:05:11;22.20;;;13.57;;
11342;SDS011;5726;42.160;24.746;2024-01-06T07:07:36;18.50;;;11.37;;
11342;SDS011;5726;42.160;24.746;2024-01-06T07:10:03;27.93;;;15.43;;
11342;SDS011;5726;42.160;24.746;2024-01-06T07:12:32;24.07;;;13.37;;
11342;SDS011;5726;42.160;24.746;2024-01-06T07:14:57;19.97;;;12.80;;
11342;SDS011;5726;42.160;24.746;2024-01-06T07:17:25;26.10;;;13.30;;
11342;SDS011;5726;42.160;24.746;2024-01-06T07:19:51;21.23;;;12.87;;
11342;SDS011;5726;42.160;24.746;2024-01-06T07:22:16;28.93;;;16.63;;
11342;SDS011;5726;42.160;24.746;2024-01-06T07:24:43;31.10;;;16.67;;
11342;SDS011;5726;42.160;24.746;2024-01-06T07:27:09;36.47;;;18.77;;
11342;SDS011;5726;42.160;24.746;2024-01-06T07:29:34;29.73;;;18.30;;
11342;SDS011;5726;42.160;24.746;2024-01-06T07:32:00;26.60;;;17.13;;
11342;SDS011;5726;42.160;24.746;2024-01-06T07:34:25;31.17;;;18.73;;
11342;SDS011;5726;42.160;24.746;2024-01-06T07:36:51;55.87;;;31.73;;
11342;SDS011;5726;42.160;24.746;2024-01-06T07:39:16;44.70;;;24.03;;
11342;SDS011;5726;42.160;24.746;2024-01-06T07:41:42;36.17;;;22.30;;
11342;SDS011;5726;42.160;24.746;2024-01-06T07:44:07;34.23;;;22.37;;
11342;SDS011;5726;42.160;24.746;2024-01-06T07:46:33;38.23;;;23.97;;
11342;SDS011;5726;42.160;24.746;2024-01-06T07:49:00;41.47;;;24.73;;
11342;SDS011;5726;42.160;24.746;2024-01-06T07:51:25;43.77;;;30.20;;
11342;SDS011;5726;42.160;24.746;2024-01-06T07:53:51;47.17;;;29.57;;
11342;SDS011;5726;42.160;24.746;2024-01-06T07:56:16;48.97;;;28.33;;
11342;SDS011;5726;42.160;24.746;2024-01-06T07:58:43;41.73;;;25.87;;
11342;SDS011;5726;42.160;24.746;2024-01-06T08:01:09;37.57;;;25.23;;
11342;SDS011;5726;42.160;24.746;2024-01-06T08:03:36;41.47;;;25.30;;
11342;SDS011;5726;42.160;24.746;2024-01-06T08:06:02;63.63;;;34.50;;
11342;SDS011;5726;42.160;24.746;2024-01-06T08:08:28;51.03;;;30.10;;
11342;SDS011;5726;42.160;24.746;2024-01-06T08:10:53;54.13;;;30.63;;
11342;SDS011;5726;42.160;24.746;2024-01-06T08:13:19;49.07;;;29.07;;
11342;SDS011;5726;42.160;24.746;2024-01-06T08:15:44;47.70;;;25.47;;
11342;SDS011;5726;42.160;24.746;2024-01-06T08:18:10;40.60;;;23.57;;
11342;SDS011;5726;42.160;24.746;2024-01-06T08:20:35;41.27;;;23.53;;
11342;SDS011;5726;42.160;24.746;2024-01-06T08:23:01;46.23;;;25.53;;
11342;SDS011;5726;42.160;24.746;2024-01-06T08:25:26;43.70;;;23.77;;
11342;SDS011;5726;42.160;24.746;2024-01-06T08:27:52;37.37;;;22.07;;
11342;SDS011;5726;42.160;24.746;2024-01-06T08:30:18;34.23;;;20.97;;
11342;SDS011;5726;42.160;24.746;2024-01-06T08:32:44;40.00;;;22.70;;
11342;SDS011;5726;42.160;24.746;2024-01-06T08:35:09;43.83;;;26.73;;
11342;SDS011;5726;42.160;24.746;2024-01-06T08:37:35;47.47;;;25.50;;
11342;SDS011;5726;42.160;24.746;2024-01-06T08:40:00;38.37;;;23.33;;
11342;SDS011;5726;42.160;24.746;2024-01-06T08:42:26;44.87;;;24.20;;
11342;SDS011;5726;42.160;24.746;2024-01-06T08:44:52;36.67;;;23.37;;
11342;SDS011;5726;42.160;24.746;2024-01-06T08:47:17;45.30;;;23.30;;
11342;SDS011;5726;42.160;24.746;2024-01-06T08:49:43;39.17;;;23.87;;
11342;SDS011;5726;42.160;24.746;2024-01-06T08:52:08;44.10;;;26.53;;
11342;SDS011;5726;42.160;24.746;2024-01-06T08:54:34;46.30;;;25.77;;
11342;SDS011;5726;42.160;24.746;2024-01-06T08:57:00;42.63;;;26.90;;
11342;SDS011;5726;42.160;24.746;2024-01-06T08:59:26;50.10;;;28.50;;
11342;SDS011;5726;42.160;24.746;2024-01-06T09:01:51;45.43;;;28.63;;
11342;SDS011;5726;42.160;24.746;2024-01-06T09:04:17;40.93;;;27.27;;
11342;SDS011;5726;42.160;24.746;2024-01-06T09:06:43;49.90;;;28.53;;
11342;SDS011;5726;42.160;24.746;2024-01-06T09:09:10;48.20;;;28.33;;
11342;SDS011;5726;42.160;24.746;2024-01-06T09:11:35;44.67;;;27.27;;
11342;SDS011;5726;42.160;24.746;2024-01-06T09:14:01;45.13;;;27.30;;
11342;SDS011;5726;42.160;24.746;2024-01-06T09:16:26;55.47;;;32.27;;
11342;SDS011;5726;42.160;24.746;2024-01-06T09:18:52;52.97;;;31.23;;
11342;SDS011;5726;42.160;24.746;2024-01-06T09:21:17;52.13;;;32.87;;
11342;SDS011;5726;42.160;24.746;2024-01-06T09:23:43;54.43;;;32.33;;
11342;SDS011;5726;42.160;24.746;2024-01-06T09:26:09;54.03;;;33.03;;
11342;SDS011;5726;42.160;24.746;2024-01-06T09:28:34;55.83;;;32.53;;
11342;SDS011;5726;42.160;24.746;2024-01-06T09:31:00;55.77;;;33.53;;
11342;SDS011;5726;42.160;24.746;2024-01-06T09:33:25;53.63;;;32.67;;
11342;SDS011;5726;42.160;24.746;2024-01-06T09:35:51;52.10;;;31.03;;
11342;SDS011;5726;42.160;24.746;2024-01-06T09:38:16;54.07;;;35.23;;
11342;SDS011;5726;42.160;24.746;2024-01-06T09:40:45;55.17;;;31.50;;
11342;SDS011;5726;42.160;24.746;2024-01-06T09:43:11;50.50;;;32.30;;
11342;SDS011;5726;42.160;24.746;2024-01-06T09:45:37;63.60;;;32.33;;
11342;SDS011;5726;42.160;24.746;2024-01-06T09:48:10;43.73;;;26.13;;
11342;SDS011;5726;42.160;24.746;2024-01-06T09:50:40;38.87;;;24.17;;
11342;SDS011;5726;42.160;24.746;2024-01-06T09:53:08;39.87;;;22.83;;
11342;SDS011;5726;42.160;24.746;2024-01-06T09:55:36;44.67;;;28.73;;
11342;SDS011;5726;42.160;24.746;2024-01-06T09:58:02;49.77;;;30.27;;
11342;SDS011;5726;42.160;24.746;2024-01-06T10:00:27;51.03;;;31.20;;
11342;SDS011;5726;42.160;24.746;2024-01-06T10:02:53;50.03;;;31.53;;
11342;SDS011;5726;42.160;24.746;2024-01-06T10:05:20;54.40;;;31.30;;
11342;SDS011;5726;42.160;24.746;2024-01-06T10:07:46;51.17;;;31.93;;
11342;SDS011;5726;42.160;24.746;2024-01-06T10:10:12;53.57;;;32.87;;
11342;SDS011;5726;42.160;24.746;2024-01-06T10:12:38;47.53;;;27.33;;
11342;SDS011;5726;42.160;24.746;2024-01-06T10:15:05;47.53;;;25.13;;
11342;SDS011;5726;42.160;24.746;2024-01-06T10:17:32;44.60;;;24.30;;
11342;SDS011;5726;42.160;24.746;2024-01-06T10:19:59;47.70;;;23.80;;
11342;SDS011;5726;42.160;24.746;2024-01-06T10:22:25;40.60;;;23.17;;
11342;SDS011;5726;42.160;24.746;2024-01-06T10:24:50;43.43;;;23.93;;
11342;SDS011;5726;42.160;24.746;2024-01-06T10:27:16;47.90;;;24.30;;
11342;SDS011;5726;42.160;24.746;2024-01-06T10:29:41;50.27;;;25.33;;
11342;SDS011;5726;42.160;24.746;2024-01-06T10:32:07;51.13;;;25.67;;
11342;SDS011;5726;42.160;24.746;2024-01-06T10:34:33;47.77;;;24.63;;
11342;SDS011;5726;42.160;24.746;2024-01-06T10:37:01;42.23;;;25.03;;
11342;SDS011;5726;42.160;24.746;2024-01-06T10:39:27;42.90;;;23.67;;
11342;SDS011;5726;42.160;24.746;2024-01-06T10:41:54;62.47;;;38.43;;
11342;SDS011;5726;42.160;24.746;2024-01-06T10:44:20;78.07;;;48.60;;
11342;SDS011;5726;42.160;24.746;2024-01-06T10:46:46;80.87;;;50.43;;
11342;SDS011;5726;42.160;24.746;2024-01-06T10:49:14;81.87;;;51.40;;
11342;SDS011;5726;42.160;24.746;2024-01-06T10:51:42;77.57;;;48.77;;
11342;SDS011;5726;42.160;24.746;2024-01-06T10:54:09;77.57;;;50.83;;
11342;SDS011;5726;42.160;24.746;2024-01-06T10:56:38;81.67;;;50.27;;
11342;SDS011;5726;42.160;24.746;2024-01-06T10:59:04;73.13;;;45.67;;
11342;SDS011;5726;42.160;24.746;2024-01-06T11:01:30;75.43;;;47.00;;
11342;SDS011;5726;42.160;24.746;2024-01-06T11:03:56;73.00;;;46.43;;
11342;SDS011;5726;42.160;24.746;2024-01-06T11:06:23;66.77;;;39.63;;
11342;SDS011;5726;42.160;24.746;2024-01-06T11:11:22;64.50;;;37.80;;
11342;SDS011;5726;42.160;24.746;2024-01-06T11:13:49;69.27;;;38.77;;
11342;SDS011;5726;42.160;24.746;2024-01-06T11:16:33;63.13;;;34.80;;
11342;SDS011;5726;42.160;24.746;2024-01-06T11:19:01;42.37;;;23.93;;
11342;SDS011;5726;42.160;24.746;2024-01-06T11:21:33;42.33;;;23.23;;
11342;SDS011;5726;42.160;24.746;2024-01-06T11:24:10;37.97;;;21.53;;
11342;SDS011;5726;42.160;24.746;2024-01-06T11:26:50;34.90;;;18.33;;
11342;SDS011;5726;42.160;24.746;2024-01-06T11:29:18;35.57;;;19.60;;
11342;SDS011;5726;42.160;24.746;2024-01-06T11:34:47;45.37;;;21.80;;
11342;SDS011;5726;42.160;24.746;2024-01-06T11:37:14;39.27;;;21.33;;
11342;SDS011;5726;42.160;24.746;2024-01-06T11:39:42;37.80;;;20.17;;
11342;SDS011;5726;42.160;24.746;2024-01-06T11:42:10;41.00;;;21.67;;
11342;SDS011;5726;42.160;24.746;2024-01-06T11:44:36;33.37;;;18.90;;
11342;SDS011;5726;42.160;24.746;2024-01-06T11:47:03;33.30;;;17.70;;
11342;SDS011;5726;42.160;24.746;2024-01-06T11:49:29;45.27;;;23.50;;
11342;SDS011;5726;42.160;24.746;2024-01-06T11:51:58;32.57;;;19.67;;
11342;SDS011;5726;42.160;24.746;2024-01-06T11:54:24;34.27;;;18.07;;
11342;SDS011;5726;42.160;24.746;2024-01-06T11:56:49;30.77;;;18.37;;
11342;SDS011;5726;42.160;24.746;2024-01-06T11:59:15;29.77;;;16.40;;
11342;SDS011;5726;42.160;24.746;2024-01-06T12:01:40;30.60;;;17.70;;
11342;SDS011;5726;42.160;24.746;2024-01-06T12:04:07;30.70;;;16.77;;
11342;SDS011;5726;42.160;24.746;2024-01-06T12:06:33;26.30;;;16.77;;
11342;SDS011;5726;42.160;24.746;2024-01-06T12:09:11;25.73;;;16.77;;
11342;SDS011;5726;42.160;24.746;2024-01-06T12:11:41;27.67;;;16.03;;
11342;SDS011;5726;42.160;24.746;2024-01-06T12:14:09;28.07;;;15.57;;
11342;SDS011;5726;42.160;24.746;2024-01-06T12:16:34;29.10;;;14.90;;
11342;SDS011;5726;42.160;24.746;2024-01-06T12:19:01;22.80;;;14.20;;
11342;SDS011;5726;42.160;24.746;2024-01-06T12:21:28;21.60;;;13.63;;
11342;SDS011;5726;42.160;24.746;2024-01-06T12:23:54;21.17;;;13.13;;
11342;SDS011;5726;42.160;24.746;2024-01-06T12:26:37;24.37;;;13.23;;
11342;SDS011;5726;42.160;24.746;2024-01-06T12:29:04;19.17;;;12.00;;
11342;SDS011;5726;42.160;24.746;2024-01-06T12:31:29;24.30;;;12.23;;
11342;SDS011;5726;42.160;24.746;2024-01-06T12:33:55;23.40;;;12.83;;
11342;SDS011;5726;42.160;24.746;2024-01-06T12:36:21;37.20;;;18.77;;
11342;SDS011;5726;42.160;24.746;2024-01-06T12:38:46;26.30;;;14.90;;
11342;SDS011;5726;42.160;24.746;2024-01-06T12:41:12;22.53;;;13.13;;
11342;SDS011;5726;42.160;24.746;2024-01-06T12:43:37;20.43;;;14.53;;
11342;SDS011;5726;42.160;24.746;2024-01-06T12:46:03;24.20;;;13.83;;
11342;SDS011;5726;42.160;24.746;2024-01-06T12:48:28;20.83;;;12.17;;
11342;SDS011;5726;42.160;24.746;2024-01-06T12:50:54;22.10;;;12.63;;
11342;SDS011;5726;42.160;24.746;2024-01-06T12:53:20;27.60;;;12.47;;
11342;SDS011;5726;42.160;24.746;2024-01-06T12:55:45;21.77;;;12.50;;
11342;SDS011;5726;42.160;24.746;2024-01-06T12:58:12;24.50;;;13.43;;
11342;SDS011;5726;42.160;24.746;2024-01-06T13:00:37;26.73;;;13.47;;
11342;SDS011;5726;42.160;24.746;2024-01-06T13:03:05;21.17;;;13.47;;
11342;SDS011;5726;42.160;24.746;2024-01-06T13:05:30;26.53;;;14.90;;
11342;SDS011;5726;42.160;24.746;2024-01-06T13:07:56;25.93;;;13.93;;
11342;SDS011;5726;42.160;24.746;2024-01-06T13:10:22;29.77;;;15.40;;
11342;SDS011;5726;42.160;24.746;2024-01-06T13:12:48;26.03;;;15.43;;
11342;SDS011;5726;42.160;24.746;2024-01-06T13:15:14;29.43;;;16.47;;
11342;SDS011;5726;42.160;24.746;2024-01-06T13:17:39;32.17;;;16.57;;
11342;SDS011;5726;42.160;24.746;2024-01-06T13:20:05;31.23;;;19.17;;
11342;SDS011;5726;42.160;24.746;2024-01-06T13:22:33;33.67;;;19.33;;
11342;SDS011;5726;42.160;24.746;2024-01-06T13:24:58;30.07;;;18.30;;
11342;SDS011;5726;42.160;24.746;2024-01-06T13:27:24;33.30;;;19.47;;
11342;SDS011;5726;42.160;24.746;2024-01-06T13:29:52;37.93;;;20.20;;
11342;SDS011;5726;42.160;24.746;2024-01-06T13:32:18;33.13;;;20.27;;
11342;SDS011;5726;42.160;24.746;2024-01-06T13:34:45;33.43;;;20.30;;
11342;SDS011;5726;42.160;24.746;2024-01-06T13:37:10;30.60;;;20.73;;
11342;SDS011;5726;42.160;24.746;2024-01-06T13:39:36;31.63;;;20.10;;
11342;SDS011;5726;42.160;24.746;2024-01-06T13:42:02;29.87;;;16.80;;
11342;SDS011;5726;42.160;24.746;2024-01-06T13:44:31;26.93;;;16.27;;
11342;SDS011;5726;42.160;24.746;2024-01-06T13:46:57;21.43;;;13.80;;
11342;SDS011;5726;42.160;24.746;2024-01-06T13:49:22;18.27;;;10.97;;
11342;SDS011;5726;42.160;24.746;2024-01-06T13:51:49;22.77;;;11.90;;
11342;SDS011;5726;42.160;24.746;2024-01-06T13:54:15;20.80;;;12.20;;
11342;SDS011;5726;42.160;24.746;2024-01-06T13:56:41;20.23;;;11.33;;
11342;SDS011;5726;42.160;24.746;2024-01-06T13:59:07;18.87;;;10.83;;
11342;SDS011;5726;42.160;24.746;2024-01-06T14:01:33;18.83;;;11.07;;
11342;SDS011;5726;42.160;24.746;2024-01-06T14:03:59;20.97;;;10.63;;
11342;SDS011;5726;42.160;24.746;2024-01-06T14:06:25;19.37;;;10.60;;
11342;SDS011;5726;42.160;24.746;2024-01-06T14:08:55;20.33;;;11.93;;
11342;SDS011;5726;42.160;24.746;2024-01-06T14:11:21;19.60;;;11.43;;
11342;SDS011;5726;42.160;24.746;2024-01-06T14:13:47;17.73;;;11.03;;
11342;SDS011;5726;42.160;24.746;2024-01-06T14:16:14;19.53;;;10.70;;
11342;SDS011;5726;42.160;24.746;2024-01-06T14:18:40;21.70;;;11.90;;
11342;SDS011;5726;42.160;24.746;2024-01-06T14:21:08;18.90;;;11.27;;